createdAt,value
2022-11-21T00:00:46.188Z,98888.31
2022-11-21T00:03:14.641Z,98885.44
2022-11-21T00:05:44.286Z,98874.88
2022-11-21T00:08:13.443Z,98872.47
2022-11-21T00:10:42.061Z,98864.56
2022-11-21T00:13:14.492Z,98860.63
2022-11-21T00:15:42.644Z,98851.09
2022-11-21T00:18:11.721Z,98864.56
2022-11-21T00:20:40.005Z,98858.56
2022-11-21T00:23:08.240Z,98858.53
2022-11-21T00:25:36.625Z,98852.03
2022-11-21T00:28:05.049Z,98854.56
2022-11-21T00:30:34.601Z,98850.63
2022-11-21T00:33:02.665Z,98844.75
2022-11-21T00:35:31.981Z,98838.41
2022-11-21T00:38:00.072Z,98848.22
2022-11-21T00:40:28.124Z,98835.28
2022-11-21T00:42:56.178Z,98830.44
2022-11-21T00:45:24.761Z,98832.88
2022-11-21T00:47:54.222Z,98826.88
2022-11-21T00:50:22.207Z,98824.13
2022-11-21T00:52:50.236Z,98825.78
2022-11-21T00:55:18.257Z,98826.38
2022-11-21T00:57:46.296Z,98821.59
2022-11-21T01:00:15.383Z,98819.75
2022-11-21T01:02:43.413Z,98812.44
2022-11-21T01:05:12.806Z,98813.41
2022-11-21T01:07:40.926Z,98811.63
2022-11-21T01:10:09.543Z,98807.66
2022-11-21T01:12:37.530Z,98809.97
2022-11-21T01:15:06.352Z,98810.78
2022-11-21T01:17:34.929Z,98813.56
2022-11-21T01:20:02.979Z,98806.84
2022-11-21T01:22:32.339Z,98804.44
2022-11-21T01:25:00.379Z,98788.69
2022-11-21T01:27:28.404Z,98788.34
2022-11-21T01:29:56.538Z,98779.09
2022-11-21T01:32:24.694Z,98783.59
2022-11-21T01:34:52.843Z,98778.88
2022-11-21T01:37:20.875Z,98788.00
2022-11-21T01:39:50.418Z,98786.31
2022-11-21T01:42:18.549Z,98783.19
2022-11-21T01:44:51.728Z,98786.69
2022-11-21T01:47:20.730Z,98788.00
2022-11-21T01:49:49.312Z,98782.00
2022-11-21T01:52:20.361Z,98770.28
2022-11-21T01:54:52.443Z,98775.19
2022-11-21T01:57:22.516Z,98765.34
2022-11-21T01:59:53.902Z,98766.78
2022-11-21T02:02:26.625Z,98760.06
2022-11-21T02:04:54.977Z,98754.44
2022-11-21T02:07:24.311Z,98750.56
2022-11-21T02:09:55.942Z,98751.44
2022-11-21T02:12:27.679Z,98755.16
2022-11-21T02:14:56.109Z,98749.53
2022-11-21T02:17:24.171Z,98736.16
2022-11-21T02:19:55.993Z,98736.03
2022-11-21T02:22:30.074Z,98734.25
2022-11-21T02:25:05.697Z,98721.31
2022-11-21T02:27:33.880Z,98717.84
2022-11-21T02:30:03.086Z,98720.59
2022-11-21T02:32:34.671Z,98708.22
2022-11-21T02:35:03.212Z,98705.47
2022-11-21T02:37:32.282Z,98704.78
2022-11-21T02:40:02.203Z,98699.31
2022-11-21T02:42:34.638Z,98708.72
2022-11-21T02:45:07.809Z,98700.44
2022-11-21T02:47:36.751Z,98695.41
2022-11-21T02:50:11.599Z,98705.63
2022-11-21T02:52:39.582Z,98692.50
2022-11-21T02:55:08.294Z,98686.44
2022-11-21T02:57:37.716Z,98692.88
2022-11-21T03:00:06.852Z,98701.44
2022-11-21T03:02:34.984Z,98700.03
2022-11-21T03:05:03.180Z,98690.78
2022-11-21T03:07:31.303Z,98692.84
2022-11-21T03:09:59.415Z,98693.03
2022-11-21T03:12:27.432Z,98692.91
2022-11-21T03:14:56.924Z,98703.94
2022-11-21T03:17:24.921Z,98695.06
2022-11-21T03:19:52.909Z,98708.25
2022-11-21T03:22:20.931Z,98704.28
2022-11-21T03:24:48.967Z,98708.84
2022-11-21T03:27:17.032Z,98711.47
2022-11-21T03:29:45.070Z,98707.59
2022-11-21T03:32:14.439Z,98707.28
2022-11-21T03:34:42.436Z,98705.16
2022-11-21T03:37:10.453Z,98696.00
2022-11-21T03:39:39.036Z,98689.06
2022-11-21T03:42:07.122Z,98691.47
2022-11-21T03:44:35.118Z,98690.06
2022-11-21T03:47:03.498Z,98695.47
2022-11-21T03:49:33.054Z,98693.88
2022-11-21T03:52:01.101Z,98690.66
2022-11-21T03:54:29.546Z,98689.16
2022-11-21T03:56:57.751Z,98689.06
2022-11-21T03:59:26.237Z,98698.41
2022-11-21T04:01:54.289Z,98697.22
2022-11-21T04:04:22.277Z,98699.63
2022-11-21T04:06:51.814Z,98700.72
2022-11-21T04:09:19.889Z,98698.16
2022-11-21T04:11:47.983Z,98699.97
2022-11-21T04:14:16.961Z,98699.91
2022-11-21T04:16:45.011Z,98712.06
2022-11-21T04:19:13.018Z,98713.44
2022-11-21T04:21:41.069Z,98713.06
2022-11-21T04:24:10.776Z,98718.84
2022-11-21T04:26:38.843Z,98717.47
2022-11-21T04:29:06.962Z,98713.66
2022-11-21T04:31:34.994Z,98711.47
2022-11-21T04:34:03.009Z,98714.38
2022-11-21T04:36:31.234Z,98719.41
2022-11-21T04:38:59.257Z,98719.72
2022-11-21T04:41:28.638Z,98718.81
2022-11-21T04:43:56.780Z,98728.16
2022-11-21T04:46:24.801Z,98738.91
2022-11-21T04:48:52.901Z,98733.63
2022-11-21T04:51:20.926Z,98740.84
2022-11-21T04:53:48.995Z,98742.09
2022-11-21T04:56:17.187Z,98740.41
2022-11-21T04:58:46.969Z,98733.16
2022-11-21T05:01:15.091Z,98724.09
2022-11-21T05:03:43.247Z,98722.28
2022-11-21T05:06:11.214Z,98713.38
2022-11-21T05:08:39.254Z,98709.88
2022-11-21T05:11:24.744Z,98714.91
2022-11-21T05:13:55.423Z,98716.16
2022-11-21T05:16:23.410Z,98714.50
2022-11-21T05:18:51.444Z,98710.22
2022-11-21T05:21:19.533Z,98705.25
2022-11-21T05:23:47.590Z,98707.31
2022-11-21T05:26:15.984Z,98698.59
2022-11-21T05:28:44.141Z,98701.22
2022-11-21T05:31:13.512Z,98689.63
2022-11-21T05:33:41.553Z,98693.16
2022-11-21T05:36:09.579Z,98691.13
2022-11-21T05:38:37.596Z,98689.69
2022-11-21T05:41:05.595Z,98679.69
2022-11-21T05:43:49.089Z,98681.06
2022-11-21T05:46:20.315Z,98673.41
2022-11-21T05:48:49.245Z,98671.44
2022-11-21T05:51:18.393Z,98673.09
2022-11-21T05:53:46.645Z,98673.09
2022-11-21T05:56:16.057Z,98664.88
2022-11-21T05:58:44.167Z,98660.13
2022-11-21T06:01:14.606Z,98659.00
2022-11-21T06:03:43.271Z,98654.84
2022-11-21T06:06:12.617Z,98658.09
2022-11-21T06:08:42.409Z,98652.94
2022-11-21T06:11:12.210Z,98647.78
2022-11-21T06:13:40.431Z,98651.13
2022-11-21T06:16:10.724Z,98647.06
2022-11-21T06:18:39.942Z,98642.34
2022-11-21T06:21:10.456Z,98651.53
2022-11-21T06:23:38.472Z,98646.38
2022-11-21T06:26:08.370Z,98647.81
2022-11-21T06:28:37.845Z,98641.94
2022-11-21T06:31:06.627Z,98638.31
2022-11-21T06:33:35.919Z,98658.78
2022-11-21T06:36:04.703Z,98655.88
2022-11-21T06:38:34.800Z,98655.47
2022-11-21T06:41:05.630Z,98657.69
2022-11-21T06:43:33.689Z,98657.69
2022-11-21T06:46:03.411Z,98659.50
2022-11-21T06:48:31.495Z,98665.78
2022-11-21T06:50:59.566Z,98663.38
2022-11-21T06:53:27.675Z,98675.19
2022-11-21T06:55:59.725Z,98659.03
2022-11-21T06:58:27.866Z,98666.59
2022-11-21T07:00:56.093Z,98663.69
2022-11-21T07:03:24.252Z,98656.44
2022-11-21T07:05:53.722Z,98654.59
2022-11-21T07:08:21.720Z,98650.72
2022-11-21T07:11:22.657Z,98667.13
2022-11-21T07:13:39.170Z,98665.28
2022-11-21T07:16:08.850Z,98661.97
2022-11-21T07:18:37.549Z,98657.22
2022-11-21T07:21:06.712Z,98669.38
2022-11-21T07:23:35.775Z,98653.63
2022-11-21T07:26:04.713Z,98649.28
2022-11-21T07:28:33.307Z,98654.75
2022-11-21T07:31:07.062Z,98652.34
2022-11-21T07:33:38.313Z,98644.69
2022-11-21T07:36:07.406Z,98654.19
2022-11-21T07:38:35.471Z,98653.91
2022-11-21T07:41:03.667Z,98658.09
2022-11-21T07:43:31.693Z,98658.78
2022-11-21T07:45:59.757Z,98665.06
2022-11-21T07:48:29.214Z,98659.03
2022-11-21T07:50:57.328Z,98660.44
2022-11-21T07:53:25.364Z,98657.38
2022-11-21T07:55:53.430Z,98658.63
2022-11-21T07:58:21.510Z,98652.09
2022-11-21T08:00:49.634Z,98653.63
2022-11-21T08:03:17.703Z,98650.00
2022-11-21T08:05:47.156Z,98652.25
2022-11-21T08:08:15.480Z,98662.03
2022-11-21T08:10:44.838Z,98649.06
2022-11-21T08:13:13.898Z,98653.66
2022-11-21T08:15:42.147Z,98655.75
2022-11-21T08:18:11.807Z,98657.59
2022-11-21T08:20:41.344Z,98658.25
2022-11-21T08:23:12.523Z,98657.56
2022-11-21T08:25:43.120Z,98653.38
2022-11-21T08:28:12.872Z,98651.69
2022-11-21T08:30:41.940Z,98658.69
2022-11-21T08:33:10.139Z,98662.00
2022-11-21T08:35:39.895Z,98663.00
2022-11-21T08:38:08.197Z,98657.06
2022-11-21T08:40:37.929Z,98650.94
2022-11-21T08:43:07.702Z,98655.28
2022-11-21T08:45:36.761Z,98663.06
2022-11-21T08:48:05.251Z,98655.31
2022-11-21T08:50:33.383Z,98659.06
2022-11-21T08:53:02.457Z,98650.81
2022-11-21T08:55:31.056Z,98648.66
2022-11-21T08:58:00.580Z,98652.84
2022-11-21T09:00:28.681Z,98651.03
2022-11-21T09:02:56.801Z,98654.81
2022-11-21T09:05:24.811Z,98650.09
2022-11-21T09:07:59.499Z,98646.41
2022-11-21T09:10:29.074Z,98644.00
2022-11-21T09:13:00.296Z,98641.47
2022-11-21T09:15:42.264Z,98652.19
2022-11-21T09:18:12.612Z,98649.69
2022-11-21T09:20:42.226Z,98657.31
2022-11-21T09:23:12.212Z,98642.31
2022-11-21T09:25:40.372Z,98643.28
2022-11-21T09:28:11.145Z,98636.31
2022-11-21T09:30:39.808Z,98643.81
2022-11-21T09:33:09.476Z,98641.78
2022-11-21T09:35:37.685Z,98644.53
2022-11-21T09:38:06.175Z,98644.03
2022-11-21T09:40:35.664Z,98649.28
2022-11-21T09:43:31.631Z,98647.19
2022-11-21T09:46:04.833Z,98639.84
2022-11-21T09:48:36.130Z,98655.81
2022-11-21T09:51:09.036Z,98647.06
2022-11-21T09:53:39.156Z,98641.75
2022-11-21T09:56:10.087Z,98634.00
2022-11-21T09:58:43.160Z,98631.94
2022-11-21T10:01:12.201Z,98620.41
2022-11-21T10:03:43.028Z,98626.97
2022-11-21T10:06:19.729Z,98631.75
2022-11-21T10:08:56.362Z,98642.41
2022-11-21T10:11:35.148Z,98611.06
2022-11-21T10:14:13.237Z,98625.25
2022-11-21T10:16:45.967Z,98619.63
2022-11-21T10:19:23.299Z,98609.09
2022-11-21T10:22:09.835Z,98600.94
2022-11-21T10:24:46.147Z,98608.00
2022-11-21T10:27:17.290Z,98593.69
2022-11-21T10:29:50.683Z,98605.69
2022-11-21T10:32:24.848Z,98601.66
2022-11-21T10:34:56.440Z,98598.63
2022-11-21T10:37:32.408Z,98613.38
2022-11-21T10:40:09.402Z,98611.06
2022-11-21T10:42:40.001Z,98602.72
2022-11-21T10:45:19.385Z,98604.91
2022-11-21T10:47:48.941Z,98600.25
2022-11-21T10:50:30.148Z,98607.59
2022-11-21T10:53:27.647Z,98597.66
2022-11-21T10:56:02.016Z,98599.91
2022-11-21T10:58:45.484Z,98607.13
2022-11-21T11:01:23.801Z,98591.16
2022-11-21T11:04:41.598Z,98590.44
2022-11-21T11:07:22.016Z,98594.78
2022-11-21T11:09:52.429Z,98585.59
2022-11-21T11:12:56.084Z,98583.16
2022-11-21T11:15:25.322Z,98590.22
2022-11-21T11:17:57.825Z,98592.94
2022-11-21T11:20:39.737Z,98580.84
2022-11-21T11:23:22.379Z,98593.63
2022-11-21T11:25:51.949Z,98598.06
2022-11-21T11:28:29.325Z,98599.00
2022-11-21T11:30:59.101Z,98613.28
2022-11-21T11:33:51.817Z,98602.97
2022-11-21T11:36:32.512Z,98605.31
2022-11-21T11:39:02.033Z,98640.25
2022-11-21T11:42:35.597Z,98612.66
2022-11-21T11:45:47.024Z,98630.97
2022-11-21T11:48:16.035Z,98612.66
2022-11-21T11:50:49.675Z,98612.00
2022-11-21T11:53:20.079Z,98602.44
2022-11-21T11:55:53.074Z,98606.31
2022-11-21T11:58:26.340Z,98601.75
2022-11-21T12:01:00.962Z,98621.66
2022-11-21T12:03:35.686Z,98601.44
2022-11-21T12:06:09.705Z,98600.00
2022-11-21T12:08:43.157Z,98599.63
2022-11-21T12:11:44.325Z,98595.81
2022-11-21T12:14:35.810Z,98600.00
2022-11-21T12:17:06.680Z,98598.34
2022-11-21T12:19:35.542Z,98612.53
2022-11-21T12:22:06.615Z,98620.13
2022-11-21T12:24:39.779Z,98599.19
2022-11-21T12:27:21.439Z,98606.69
2022-11-21T12:30:00.390Z,98613.06
2022-11-21T12:32:40.081Z,98595.47
2022-11-21T12:35:43.615Z,98620.50
2022-11-21T12:38:22.631Z,98621.84
2022-11-21T12:40:59.123Z,98601.66
2022-11-21T12:43:34.523Z,98643.72
2022-11-21T12:46:09.149Z,98609.59
2022-11-21T12:49:02.027Z,98633.91
2022-11-21T12:52:11.265Z,98630.31
2022-11-21T12:55:10.952Z,98595.34
2022-11-21T12:57:48.000Z,98598.56
2022-11-21T13:00:20.117Z,98594.47
2022-11-21T13:03:33.455Z,98598.72
2022-11-21T13:06:03.063Z,98607.34
2022-11-21T13:08:32.484Z,98592.47
2022-11-21T13:11:25.509Z,98592.97
2022-11-21T13:14:00.584Z,98620.81
2022-11-21T13:16:37.792Z,98605.84
2022-11-21T13:19:14.148Z,98620.25
2022-11-21T13:21:43.143Z,98612.66
2022-11-21T13:24:11.693Z,98632.53
2022-11-21T13:26:53.296Z,98608.66
2022-11-21T13:29:21.334Z,98615.75
2022-11-21T13:31:49.363Z,98604.19
2022-11-21T13:34:38.397Z,98610.56
2022-11-21T13:37:07.080Z,98608.00
2022-11-21T13:39:39.189Z,98607.69
2022-11-21T13:42:33.213Z,98621.91
2022-11-21T13:45:40.681Z,98615.53
2022-11-21T13:48:53.427Z,98622.34
2022-11-21T13:51:50.745Z,98616.47
2022-11-21T13:54:50.592Z,98616.72
2022-11-21T13:57:51.439Z,98619.13
2022-11-21T14:00:29.648Z,98621.34
2022-11-21T14:03:30.387Z,98617.38
2022-11-21T14:06:19.597Z,98611.56
2022-11-21T14:09:06.400Z,98607.97
2022-11-21T14:11:38.108Z,98606.41
2022-11-21T14:14:06.228Z,98606.75
2022-11-21T14:16:37.977Z,98609.81
2022-11-21T14:19:06.628Z,98610.78
2022-11-21T14:21:35.792Z,98609.41
2022-11-21T14:24:06.443Z,98620.94
2022-11-21T14:26:47.214Z,98612.06
2022-11-21T14:29:19.345Z,98613.22
2022-11-21T14:31:49.584Z,98608.75
2022-11-21T14:34:26.276Z,98603.44
2022-11-21T14:36:54.775Z,98602.75
2022-11-21T14:39:37.175Z,98608.06
2022-11-21T14:42:13.581Z,98588.63
2022-11-21T14:44:41.781Z,98588.16
2022-11-21T14:47:21.223Z,98597.03
2022-11-21T14:49:52.295Z,98588.63
2022-11-21T14:52:24.531Z,98584.16
2022-11-21T14:57:43.656Z,98599.94
2022-11-21T15:00:51.553Z,98580.13
2022-11-21T15:03:23.888Z,98576.34
2022-11-21T15:06:04.584Z,98577.97
2022-11-21T15:11:24.765Z,98592.41
2022-11-21T15:16:44.959Z,98583.94
2022-11-21T15:19:21.099Z,98592.38
2022-11-21T15:21:51.681Z,98583.94
2022-11-21T15:24:29.497Z,98582.47
2022-11-21T15:26:57.705Z,98574.53
2022-11-21T15:29:25.961Z,98583.25
2022-11-21T15:32:15.769Z,98574.06
2022-11-21T15:34:47.328Z,98577.41
2022-11-21T15:37:17.937Z,98571.13
2022-11-21T15:39:48.268Z,98569.44
2022-11-21T15:42:40.496Z,98572.81
2022-11-21T15:45:26.963Z,98565.31
2022-11-21T15:47:56.735Z,98560.44
2022-11-21T15:50:26.524Z,98563.81
2022-11-21T15:52:54.857Z,98557.94
2022-11-21T15:55:26.384Z,98557.03
2022-11-21T15:57:54.445Z,98561.91
2022-11-21T16:00:22.986Z,98575.78
2022-11-21T16:02:51.208Z,98569.03
2022-11-21T16:05:19.287Z,98570.13
2022-11-21T16:07:48.978Z,98565.75
2022-11-21T16:10:25.912Z,98568.22
2022-11-21T16:12:55.497Z,98564.38
2022-11-21T16:15:24.037Z,98557.59
2022-11-21T16:17:53.101Z,98559.75
2022-11-21T16:20:21.241Z,98561.19
2022-11-21T16:22:51.335Z,98566.38
2022-11-21T16:25:19.676Z,98562.16
2022-11-21T16:27:48.328Z,98558.84
2022-11-21T16:30:16.841Z,98560.28
2022-11-21T16:32:44.852Z,98559.69
2022-11-21T16:35:13.351Z,98554.66
2022-11-21T16:37:42.347Z,98549.44
2022-11-21T16:40:12.846Z,98553.34
2022-11-21T16:42:41.663Z,98557.28
2022-11-21T16:45:11.706Z,98563.13
2022-11-21T16:47:43.099Z,98556.75
2022-11-21T16:50:16.234Z,98556.31
2022-11-21T16:52:44.680Z,98556.88
2022-11-21T16:55:16.538Z,98554.38
2022-11-21T16:57:45.696Z,98567.28
2022-11-21T17:00:16.897Z,98571.94
2022-11-21T17:02:47.149Z,98555.25
2022-11-21T17:05:15.634Z,98564.00
2022-11-21T17:07:45.600Z,98558.19
2022-11-21T17:10:16.087Z,98562.53
2022-11-21T17:12:45.490Z,98556.25
2022-11-21T17:15:16.111Z,98566.06
2022-11-21T17:17:44.341Z,98567.97
2022-11-21T17:20:13.192Z,98569.97
2022-11-21T17:22:50.602Z,98568.84
2022-11-21T17:25:22.600Z,98567.75
2022-11-21T17:27:52.870Z,98561.59
2022-11-21T17:30:22.051Z,98566.75
2022-11-21T17:32:50.920Z,98560.78
2022-11-21T17:35:20.346Z,98558.56
2022-11-21T17:37:49.736Z,98559.38
2022-11-21T17:40:18.535Z,98560.50
2022-11-21T17:42:48.610Z,98555.78
2022-11-21T17:45:17.908Z,98556.44
2022-11-21T17:47:47.246Z,98556.31
2022-11-21T17:50:16.324Z,98557.28
2022-11-21T17:52:47.043Z,98554.66
2022-11-21T17:55:16.859Z,98560.38
2022-11-21T17:57:46.942Z,98548.81
2022-11-21T18:00:19.603Z,98545.31
2022-11-21T18:02:49.423Z,98551.75
2022-11-21T18:05:18.404Z,98551.19
2022-11-21T18:07:50.649Z,98548.97
2022-11-21T18:10:42.235Z,98543.38
2022-11-21T18:13:09.569Z,98551.91
2022-11-21T18:15:39.545Z,98548.13
2022-11-21T18:18:08.813Z,98540.47
2022-11-21T18:20:38.134Z,98542.84
2022-11-21T18:23:07.573Z,98545.34
2022-11-21T18:25:37.334Z,98538.94
2022-11-21T18:28:07.094Z,98532.13
2022-11-21T18:30:36.978Z,98539.38
2022-11-21T18:33:08.293Z,98547.16
2022-11-21T18:35:37.768Z,98537.28
2022-11-21T18:38:06.582Z,98543.94
2022-11-21T18:40:36.164Z,98547.41
2022-11-21T18:43:09.518Z,98548.13
2022-11-21T18:45:39.342Z,98552.59
2022-11-21T18:48:10.476Z,98554.38
2022-11-21T18:50:40.273Z,98547.81
2022-11-21T18:53:11.249Z,98557.44
2022-11-21T18:55:41.645Z,98544.34
2022-11-21T18:58:12.096Z,98548.38
2022-11-21T19:00:49.613Z,98542.44
2022-11-21T19:03:29.311Z,98543.94
2022-11-21T19:06:11.250Z,98538.66
2022-11-21T19:08:44.611Z,98525.44
2022-11-21T19:11:20.658Z,98519.00
2022-11-21T19:13:51.863Z,98513.41
2022-11-21T19:16:28.689Z,98513.69
2022-11-21T19:19:32.624Z,98519.78
2022-11-21T19:21:51.046Z,98508.97
2022-11-21T19:24:21.615Z,98509.38
2022-11-21T19:26:53.959Z,98508.66
2022-11-21T19:29:23.624Z,98521.19
2022-11-21T19:31:54.487Z,98504.63
2022-11-21T19:34:26.099Z,98500.56
2022-11-21T19:36:56.403Z,98494.44
2022-11-21T19:39:32.435Z,98494.59
2022-11-21T19:42:02.491Z,98486.78
2022-11-21T19:44:33.551Z,98476.63
2022-11-21T19:47:04.814Z,98484.75
2022-11-21T19:49:37.377Z,98486.63
2022-11-21T19:52:07.324Z,98490.69
2022-11-21T19:54:40.979Z,98500.28
2022-11-21T19:57:13.857Z,98488.59
2022-11-21T19:59:47.017Z,98485.25
2022-11-21T20:02:19.736Z,98477.44
2022-11-21T20:04:51.993Z,98475.94
2022-11-21T20:07:21.362Z,98478.00
2022-11-21T20:09:52.757Z,98466.00
2022-11-21T20:12:22.995Z,98463.34
2022-11-21T20:14:54.314Z,98453.72
2022-11-21T20:17:26.097Z,98456.25
2022-11-21T20:20:00.407Z,98451.41
2022-11-21T20:22:30.538Z,98453.34
2022-11-21T20:25:04.072Z,98454.31
2022-11-21T20:27:33.624Z,98448.16
2022-11-21T20:30:05.541Z,98454.03
2022-11-21T20:32:36.432Z,98451.78
2022-11-21T20:35:13.893Z,98452.38
2022-11-21T20:37:43.769Z,98449.06
2022-11-21T20:40:14.609Z,98450.94
2022-11-21T20:42:45.724Z,98444.84
2022-11-21T20:48:10.492Z,98432.31
2022-11-21T20:51:50.959Z,98433.38
2022-11-21T20:53:56.163Z,98426.44
2022-11-21T20:56:29.612Z,98432.00
2022-11-21T20:58:59.265Z,98427.25
2022-11-21T21:01:30.001Z,98423.66
2022-11-21T21:03:58.995Z,98430.88
2022-11-21T21:06:29.782Z,98426.81
2022-11-21T21:08:58.289Z,98435.31
2022-11-21T21:11:50.806Z,98425.75
2022-11-21T21:14:17.217Z,98426.56
2022-11-21T21:16:47.944Z,98431.13
2022-11-21T21:19:16.775Z,98425.47
2022-11-21T21:21:48.514Z,98421.13
2022-11-21T21:24:18.171Z,98418.50
2022-11-21T21:26:50.154Z,98423.34
2022-11-21T21:29:20.645Z,98418.53
2022-11-21T21:31:52.345Z,98410.53
2022-11-21T21:34:22.681Z,98411.34
2022-11-21T21:36:53.619Z,98404.41
2022-11-21T21:39:21.851Z,98407.03
2022-11-21T21:41:53.454Z,98405.91
2022-11-21T21:44:21.568Z,98404.66
2022-11-21T21:46:51.017Z,98402.56
2022-11-21T21:49:26.849Z,98405.59
2022-11-21T21:51:57.610Z,98404.28
2022-11-21T21:54:26.816Z,98388.63
2022-11-21T21:56:56.532Z,98386.31
2022-11-21T21:59:25.716Z,98389.50
2022-11-21T22:01:57.235Z,98385.56
2022-11-21T22:04:25.656Z,98387.66
2022-11-21T22:06:55.011Z,98369.56
2022-11-21T22:09:25.155Z,98372.19
2022-11-21T22:11:54.132Z,98366.66
2022-11-21T22:14:23.028Z,98374.78
2022-11-21T22:16:53.093Z,98376.25
2022-11-21T22:19:22.104Z,98371.53
2022-11-21T22:21:51.819Z,98370.22
2022-11-21T22:24:25.916Z,98362.25
2022-11-21T22:26:57.091Z,98349.31
2022-11-21T22:29:25.669Z,98359.69
2022-11-21T22:31:54.818Z,98356.66
2022-11-21T22:34:23.974Z,98345.56
2022-11-21T22:36:53.387Z,98356.84
2022-11-21T22:39:21.427Z,98345.13
2022-11-21T22:41:51.162Z,98345.78
2022-11-21T22:44:22.847Z,98344.91
2022-11-21T22:46:52.554Z,98349.28
2022-11-21T22:49:20.820Z,98346.06
2022-11-21T22:51:50.137Z,98340.31
2022-11-21T22:54:18.635Z,98338.41
2022-11-21T22:57:00.645Z,98329.94
2022-11-21T22:59:31.241Z,98313.41
2022-11-21T23:02:00.902Z,98315.50
2022-11-21T23:04:29.750Z,98313.59
2022-11-21T23:06:57.902Z,98306.38
2022-11-21T23:09:25.965Z,98306.22
2022-11-21T23:11:54.039Z,98301.88
2022-11-21T23:14:22.703Z,98299.44
2022-11-21T23:16:53.629Z,98287.25
2022-11-21T23:19:24.325Z,98287.13
2022-11-21T23:21:54.815Z,98269.69
2022-11-21T23:24:22.902Z,98275.19
2022-11-21T23:26:52.016Z,98269.16
2022-11-21T23:29:20.077Z,98265.00
2022-11-21T23:31:49.199Z,98259.66
2022-11-21T23:34:19.114Z,98261.38
2022-11-21T23:36:48.447Z,98255.66
2022-11-21T23:39:16.720Z,98254.44
2022-11-21T23:41:46.135Z,98244.19
2022-11-21T23:44:15.740Z,98241.38
2022-11-21T23:46:45.409Z,98242.25
2022-11-21T23:49:13.777Z,98247.91
2022-11-21T23:51:44.389Z,98239.72
2022-11-21T23:54:12.935Z,98236.97
2022-11-21T23:56:42.055Z,98235.16
2022-11-21T23:59:12.802Z,98235.47
